Terminal Aerodrome Forecast
Issued by NWS Twin Cities, MN

Home | Current Version | Previous Version | Graphics & Text | Print | Product List | Glossary On
Versions: 1 2 3 4 5 6 7 8 9 10 11 12 13 14 15 16 17 18 19 20 21 22 23
000
FTUS43 KMPX 230546
TAFSTC
TAF
KSTC 230546Z 2306/2406 16012KT P6SM BKN110 WS020/18045KT
     FM231100 18014G20KT 6SM -RA SCT025 BKN040
      TEMPO 2312/2314 4SM -TSRA BKN025CB
     FM231500 19014G20KT P6SM VCSH OVC040
     FM232000 21011KT 6SM SHRA BKN060 PROB30 2320/2324 3SM TSRA
      BKN030CB
     FM240000 19007KT 6SM SHRA BKN080=

USA.gov is the U.S. government's official web portal to all federal, state and local government web resources and services.